Time;durP1;ratioP1;P1;durP2;ratioP2;P2;SDS_P1;SDS_P2;PMS_P1;PMS_P2;Temp;Humidity;BMP_temperature;BMP_pressure;BME280_temperature;BME280_humidity;BME280_pressure;Samples;Min_cycle;Max_cycle;Signal;HPM_P1;HPM_P2
2022/05/12 00:00:09;;;;;;;2.97;1.10;;;10.10;99.90;;;;;;5093719;28;20476;-68
2022/05/12 00:02:36;;;;;;;0.93;0.85;;;10.10;99.90;;;;;;5092753;28;20020;-69
2022/05/12 00:05:05;;;;;;;3.63;1.40;;;10.00;99.90;;;;;;5093793;28;20491;-68
2022/05/12 00:07:31;;;;;;;5.60;1.58;;;10.00;99.90;;;;;;5093133;28;20604;-70
2022/05/12 00:09:57;;;;;;;2.40;1.52;;;9.90;99.90;;;;;;5093612;28;20120;-70
2022/05/12 00:12:23;;;;;;;1.83;1.20;;;9.90;99.90;;;;;;5093695;28;20202;-70
2022/05/12 00:14:49;;;;;;;7.53;1.38;;;9.80;99.90;;;;;;5088951;28;20120;-70
2022/05/12 00:17:15;;;;;;;4.97;1.20;;;9.80;99.90;;;;;;5094136;28;20536;-69
2022/05/12 00:19:41;;;;;;;6.63;1.20;;;9.70;99.90;;;;;;5092591;28;20095;-69
2022/05/12 00:22:07;;;;;;;3.95;1.02;;;9.80;99.90;;;;;;5091886;28;20157;-70
2022/05/12 00:24:33;;;;;;;2.53;1.20;;;9.70;99.90;;;;;;5093254;28;20177;-70
2022/05/12 00:26:59;;;;;;;3.97;1.40;;;9.70;99.90;;;;;;5091901;28;20020;-70
2022/05/12 00:29:25;;;;;;;1.77;1.20;;;9.70;99.90;;;;;;5092092;28;20023;-70
2022/05/12 00:31:51;;;;;;;4.40;1.58;;;9.70;99.90;;;;;;5092984;28;20039;-70
2022/05/12 00:34:19;;;;;;;2.10;1.17;;;9.60;99.90;;;;;;5093477;28;20493;-70
2022/05/12 00:36:46;;;;;;;4.30;1.10;;;9.60;99.90;;;;;;5093734;28;20107;-70
2022/05/12 00:39:12;;;;;;;2.15;1.27;;;9.50;99.90;;;;;;5093428;28;20051;-71
2022/05/12 00:41:38;;;;;;;3.05;1.20;;;9.50;99.90;;;;;;5094311;28;20036;-70
2022/05/12 00:44:08;;;;;;;4.63;1.92;;;9.40;99.90;;;;;;5093738;28;20024;-69
2022/05/12 00:46:37;;;;;;;4.90;1.33;;;9.40;99.90;;;;;;5093948;28;20020;-69
2022/05/12 00:49:08;;;;;;;3.45;1.17;;;9.30;99.90;;;;;;5094215;28;20024;-69
2022/05/12 00:51:44;;;;;;;3.35;1.90;;;9.30;99.90;;;;;;5093372;28;20034;-69
2022/05/12 00:54:23;;;;;;;3.72;1.10;;;9.30;99.90;;;;;;5093951;28;20036;-69
2022/05/12 00:56:50;;;;;;;3.17;1.48;;;9.30;99.90;;;;;;5093210;28;20028;-71
2022/05/12 00:59:27;;;;;;;4.90;1.77;;;9.30;99.90;;;;;;5092553;28;20024;-69
2022/05/12 01:01:53;;;;;;;3.05;1.42;;;9.30;99.90;;;;;;5092973;28;20032;-68
2022/05/12 01:04:20;;;;;;;4.97;1.60;;;9.30;99.90;;;;;;5093742;28;20494;-69
2022/05/12 01:06:46;;;;;;;2.83;1.05;;;9.30;99.90;;;;;;5091043;28;20118;-69
2022/05/12 01:09:12;;;;;;;3.53;1.20;;;9.20;99.90;;;;;;5091738;28;20035;-68
2022/05/12 01:11:38;;;;;;;6.35;1.10;;;9.20;99.90;;;;;;5090892;28;20031;-68
2022/05/12 01:14:06;;;;;;;5.38;1.40;;;9.20;99.90;;;;;;5091499;28;20073;-69
2022/05/12 01:16:35;;;;;;;4.97;1.60;;;9.20;99.90;;;;;;5091631;28;20373;-68
2022/05/12 01:19:01;;;;;;;4.32;1.30;;;9.20;99.90;;;;;;5091263;28;20039;-68
2022/05/12 01:21:26;;;;;;;4.15;1.30;;;9.30;99.90;;;;;;5090758;28;20048;-69
2022/05/12 01:23:52;;;;;;;3.65;1.63;;;9.20;99.90;;;;;;5090034;28;20081;-69
2022/05/12 01:26:17;;;;;;;5.60;1.77;;;9.20;99.90;;;;;;5091351;28;20043;-68
2022/05/12 01:28:44;;;;;;;5.47;1.13;;;9.10;99.90;;;;;;5091049;28;20039;-68
2022/05/12 01:31:15;;;;;;;4.68;1.88;;;9.10;99.90;;;;;;5091887;28;20655;-68
2022/05/12 01:33:41;;;;;;;7.00;1.33;;;9.00;99.90;;;;;;5091598;28;20020;-69
2022/05/12 01:36:07;;;;;;;6.18;1.20;;;9.00;99.90;;;;;;5090781;28;20038;-69
2022/05/12 01:38:32;;;;;;;3.15;1.55;;;9.00;99.90;;;;;;5091106;28;20020;-68
2022/05/12 01:40:58;;;;;;;6.45;1.40;;;9.00;99.90;;;;;;5091439;28;20050;-69
2022/05/12 01:43:24;;;;;;;2.70;1.15;;;8.90;99.90;;;;;;5092443;28;20375;-69
2022/05/12 01:45:50;;;;;;;4.18;1.20;;;8.80;99.90;;;;;;5091274;28;20079;-69
2022/05/12 01:48:17;;;;;;;2.90;1.58;;;8.70;99.90;;;;;;5091589;28;20024;-69
2022/05/12 01:50:45;;;;;;;8.30;1.70;;;8.60;99.90;;;;;;5091014;28;20495;-69
2022/05/12 01:53:13;;;;;;;3.85;1.55;;;8.60;99.90;;;;;;5091689;28;20036;-69
2022/05/12 01:55:39;;;;;;;3.67;1.08;;;8.60;99.90;;;;;;5090900;28;20067;-68
2022/05/12 01:58:06;;;;;;;4.95;1.08;;;8.60;99.90;;;;;;5091072;28;20036;-69
2022/05/12 02:00:33;;;;;;;3.07;1.20;;;8.60;99.90;;;;;;5090875;28;20043;-69
2022/05/12 02:03:02;;;;;;;4.28;0.98;;;8.60;99.90;;;;;;5092222;28;20268;-69
2022/05/12 02:05:32;;;;;;;4.95;1.00;;;8.40;99.90;;;;;;5095668;28;20479;-69
2022/05/12 02:07:58;;;;;;;2.90;1.20;;;8.20;99.90;;;;;;5095299;28;20020;-69
2022/05/12 02:10:28;;;;;;;5.35;1.45;;;8.00;99.90;;;;;;5094203;28;20081;-68
2022/05/12 02:12:54;;;;;;;1.85;1.20;;;7.90;99.90;;;;;;5094829;28;20020;-69
2022/05/12 02:15:20;;;;;;;3.38;1.40;;;7.70;99.90;;;;;;5094713;28;20099;-69
2022/05/12 02:17:46;;;;;;;4.93;1.65;;;7.70;99.90;;;;;;5094687;28;20028;-69
2022/05/12 02:20:13;;;;;;;4.20;1.70;;;7.60;99.90;;;;;;5092732;28;20035;-68
2022/05/12 02:22:39;;;;;;;3.80;1.48;;;7.60;99.90;;;;;;5094886;28;20032;-69
2022/05/12 02:25:07;;;;;;;4.22;1.42;;;7.50;99.90;;;;;;5094552;28;20036;-68
2022/05/12 02:27:33;;;;;;;6.85;2.50;;;7.50;99.90;;;;;;5118396;27;20047;-69
2022/05/12 02:29:59;;;;;;;2.03;1.27;;;7.60;99.90;;;;;;5094263;28;20032;-69
2022/05/12 02:32:27;;;;;;;4.75;1.63;;;7.80;99.90;;;;;;5094660;28;20068;-70
2022/05/12 02:34:54;;;;;;;4.45;1.58;;;7.90;99.90;;;;;;5094130;28;20550;-69
2022/05/12 02:37:20;;;;;;;9.35;2.13;;;8.00;99.90;;;;;;5094448;28;20027;-69
2022/05/12 02:39:45;;;;;;;4.78;1.50;;;8.10;99.90;;;;;;5094359;28;20228;-69
2022/05/12 02:42:11;;;;;;;8.00;1.52;;;8.10;99.90;;;;;;5094290;28;20024;-68
2022/05/12 02:44:37;;;;;;;3.42;1.30;;;8.00;99.90;;;;;;5094632;28;20036;-69
2022/05/12 02:47:05;;;;;;;5.70;1.67;;;7.80;99.90;;;;;;5094147;28;20032;-69
2022/05/12 02:49:31;;;;;;;2.13;1.10;;;7.70;99.90;;;;;;5094157;28;20024;-68
2022/05/12 02:51:56;;;;;;;3.42;1.27;;;7.50;99.90;;;;;;5075040;28;20059;-68
2022/05/12 02:54:22;;;;;;;5.18;1.42;;;7.50;99.90;;;;;;5081307;28;20500;-69
2022/05/12 02:56:49;;;;;;;1.92;1.27;;;7.40;99.90;;;;;;5093913;28;20032;-68
2022/05/12 02:59:17;;;;;;;1.90;1.27;;;7.40;99.90;;;;;;5093992;28;20078;-69
2022/05/12 03:01:43;;;;;;;2.05;1.30;;;7.20;99.90;;;;;;5093331;28;20036;-68
2022/05/12 03:04:09;;;;;;;5.03;1.70;;;7.10;99.90;;;;;;5093818;28;20532;-68
2022/05/12 03:06:35;;;;;;;4.22;1.25;;;7.10;99.90;;;;;;5094148;28;20380;-69
2022/05/12 03:09:01;;;;;;;3.25;1.35;;;7.10;99.90;;;;;;5092836;28;20383;-68
2022/05/12 03:11:28;;;;;;;5.45;1.65;;;7.40;99.90;;;;;;5093566;28;20063;-68
2022/05/12 03:13:54;;;;;;;5.00;1.63;;;7.60;99.90;;;;;;5092332;28;20449;-68
2022/05/12 03:16:20;;;;;;;3.13;1.63;;;7.70;99.90;;;;;;5093456;28;20127;-69
2022/05/12 03:18:51;;;;;;;5.28;1.80;;;7.70;99.90;;;;;;5094094;28;20446;-68
2022/05/12 03:21:17;;;;;;;6.63;2.08;;;7.80;99.90;;;;;;5086362;28;20048;-69
2022/05/12 03:23:46;;;;;;;5.90;1.77;;;7.80;99.90;;;;;;5093627;28;20032;-70
2022/05/12 03:26:12;;;;;;;4.32;1.58;;;7.80;99.90;;;;;;5092656;28;20103;-69
2022/05/12 03:28:39;;;;;;;4.28;2.00;;;7.80;99.90;;;;;;5093592;28;20028;-69
2022/05/12 03:31:07;;;;;;;3.05;1.67;;;7.70;99.90;;;;;;5092727;28;20020;-70
2022/05/12 03:33:33;;;;;;;5.72;1.67;;;7.60;99.90;;;;;;5092567;28;20028;-70
2022/05/12 03:35:59;;;;;;;6.03;1.60;;;7.50;99.90;;;;;;5093501;28;20084;-71
2022/05/12 03:38:25;;;;;;;5.35;1.73;;;7.40;99.90;;;;;;5093043;28;20028;-69
2022/05/12 03:40:52;;;;;;;3.72;1.60;;;7.30;99.90;;;;;;5091887;28;20036;-69
2022/05/12 03:46:03;;;;;;;2.97;1.30;;;7.20;99.90;;;;;;5093192;28;20104;-69
2022/05/12 03:48:30;;;;;;;6.33;2.00;;;7.40;99.90;;;;;;5093294;28;20031;-70
2022/05/12 03:50:56;;;;;;;3.90;1.90;;;7.60;99.90;;;;;;5092665;28;20771;-69
2022/05/12 03:53:23;;;;;;;2.22;1.10;;;7.80;99.90;;;;;;5092867;28;20466;-69
2022/05/12 03:55:49;;;;;;;4.50;1.75;;;8.00;99.90;;;;;;5092145;28;20036;-69
2022/05/12 03:58:15;;;;;;;6.70;1.77;;;8.20;99.90;;;;;;5091918;28;20082;-69
2022/05/12 04:00:41;;;;;;;4.28;1.60;;;8.30;99.90;;;;;;5092504;28;20032;-69
2022/05/12 04:03:06;;;;;;;4.82;1.38;;;8.30;99.90;;;;;;5092598;28;20026;-69
2022/05/12 04:05:32;;;;;;;5.80;1.58;;;8.30;99.90;;;;;;5092468;28;20060;-69
2022/05/12 04:07:58;;;;;;;4.60;1.38;;;8.20;99.90;;;;;;5092758;28;20074;-68
2022/05/12 04:10:26;;;;;;;4.65;1.33;;;8.00;99.90;;;;;;5092075;28;20035;-69
2022/05/12 04:12:52;;;;;;;2.83;1.45;;;7.90;99.90;;;;;;5092330;28;20073;-69
2022/05/12 04:15:19;;;;;;;5.93;1.40;;;7.80;99.90;;;;;;5092778;28;20101;-69
2022/05/12 04:17:47;;;;;;;5.90;1.70;;;7.60;99.90;;;;;;5092338;28;20414;-69
2022/05/12 04:20:13;;;;;;;4.28;1.55;;;7.50;99.90;;;;;;5091765;28;20110;-68
2022/05/12 04:22:45;;;;;;;4.70;1.45;;;7.50;99.90;;;;;;5091977;28;20066;-69
2022/05/12 04:25:11;;;;;;;2.63;1.30;;;7.40;99.90;;;;;;5091785;28;20101;-69
2022/05/12 04:27:38;;;;;;;2.40;1.13;;;7.40;99.90;;;;;;5092376;28;20433;-69
2022/05/12 04:30:07;;;;;;;4.70;1.30;;;7.30;99.90;;;;;;5092647;28;20106;-69
2022/05/12 04:32:33;;;;;;;7.50;1.50;;;7.40;99.90;;;;;;5092600;28;20019;-69
2022/05/12 04:35:12;;;;;;;4.00;1.30;;;7.40;99.90;;;;;;5092104;28;20362;-68
2022/05/12 04:37:54;;;;;;;6.95;1.50;;;7.40;99.90;;;;;;5092134;28;20028;-69
2022/05/12 04:40:21;;;;;;;3.88;1.10;;;7.50;99.90;;;;;;5091728;28;20028;-69
2022/05/12 04:42:49;;;;;;;4.87;1.30;;;7.50;99.90;;;;;;5091706;28;20032;-68
2022/05/12 04:45:15;;;;;;;;;;;7.60;99.90;;;;;;5092565;28;20028;-68
2022/05/12 04:47:41;;;;;;;1.10;0.95;;;7.60;99.90;;;;;;5091970;28;19911;-68
2022/05/12 04:50:10;;;;;;;3.65;1.30;;;7.70;99.90;;;;;;5091403;28;20507;-68
2022/05/12 04:52:39;;;;;;;4.72;1.17;;;7.70;99.90;;;;;;5091318;28;20020;-68
2022/05/12 04:55:05;;;;;;;9.25;1.48;;;7.70;99.90;;;;;;5089927;28;20056;-68
2022/05/12 04:57:39;;;;;;;6.25;1.55;;;7.80;99.90;;;;;;5091782;28;20487;-68
2022/05/12 05:00:09;;;;;;;6.38;1.48;;;7.90;99.90;;;;;;5091943;28;20428;-67
2022/05/12 05:02:35;;;;;;;2.88;1.08;;;8.20;99.90;;;;;;5090391;28;20036;-68
2022/05/12 05:05:01;;;;;;;2.58;1.15;;;8.30;99.90;;;;;;5082357;28;20039;-67
2022/05/12 05:07:27;;;;;;;4.30;1.17;;;8.40;99.90;;;;;;5070952;28;20028;-67
2022/05/12 05:09:53;;;;;;;9.90;1.52;;;8.40;99.90;;;;;;5085625;28;20032;-67
2022/05/12 05:12:19;;;;;;;3.88;1.83;;;8.30;99.90;;;;;;5091956;28;20051;-68
2022/05/12 05:14:45;;;;;;;6.10;1.92;;;8.30;99.90;;;;;;5091355;28;20527;-67
2022/05/12 05:17:11;;;;;;;5.25;1.77;;;8.40;99.90;;;;;;5091440;28;20024;-67
2022/05/12 05:19:37;;;;;;;4.85;1.60;;;8.80;99.90;;;;;;5090689;28;20019;-67
2022/05/12 05:22:03;;;;;;;5.82;1.90;;;9.10;99.90;;;;;;5091074;28;20127;-67
2022/05/12 05:24:29;;;;;;;4.93;1.35;;;9.30;99.90;;;;;;5097602;28;20476;-67
2022/05/12 05:26:55;;;;;;;3.45;1.35;;;9.50;99.90;;;;;;5091673;28;20051;-67
2022/05/12 05:29:21;;;;;;;4.13;1.40;;;9.60;99.90;;;;;;5090781;28;20063;-67
2022/05/12 05:31:46;;;;;;;9.18;1.48;;;9.50;99.90;;;;;;5093054;28;20110;-67
2022/05/12 05:34:12;;;;;;;2.80;1.15;;;9.40;99.90;;;;;;5091513;28;20467;-62
2022/05/12 05:36:42;;;;;;;8.00;1.98;;;9.40;99.90;;;;;;5092053;28;20407;-62
2022/05/12 05:39:17;;;;;;;2.53;1.58;;;9.60;99.90;;;;;;5086661;28;20032;-61
2022/05/12 05:41:42;;;;;;;4.00;1.40;;;9.80;99.90;;;;;;5081508;28;20036;-67
2022/05/12 05:44:08;;;;;;;7.05;2.28;;;10.00;99.90;;;;;;5084456;28;20025;-67
2022/05/12 05:46:34;;;;;;;3.13;1.40;;;10.00;99.90;;;;;;5084297;28;20106;-68
2022/05/12 05:49:00;;;;;;;6.63;1.88;;;10.20;99.90;;;;;;5093747;28;20023;-67
2022/05/12 05:54:09;;;;;;;4.80;1.38;;;10.50;99.90;;;;;;5090374;28;20513;-66
2022/05/12 05:56:35;;;;;;;5.68;1.20;;;10.60;99.90;;;;;;5092652;28;20032;-67
2022/05/12 05:59:01;;;;;;;6.80;1.27;;;10.70;99.90;;;;;;5091737;28;20027;-67
2022/05/12 06:01:27;;;;;;;8.63;1.42;;;10.80;99.90;;;;;;5086639;28;20101;-66
2022/05/12 06:03:53;;;;;;;3.75;1.30;;;10.80;99.90;;;;;;5075814;28;20162;-66
2022/05/12 06:06:18;;;;;;;4.75;1.30;;;10.80;99.90;;;;;;5075221;28;20513;-66
2022/05/12 06:08:46;;;;;;;7.10;1.67;;;10.80;99.90;;;;;;5075900;28;20484;-67
2022/05/12 06:11:11;;;;;;;6.75;1.20;;;10.90;99.90;;;;;;5075045;28;20239;-67
2022/05/12 06:13:37;;;;;;;6.20;1.35;;;11.00;99.90;;;;;;5076879;28;20533;-66
2022/05/12 06:16:05;;;;;;;2.70;1.10;;;11.10;99.90;;;;;;5094201;28;20024;-67
2022/05/12 06:18:31;;;;;;;7.78;1.20;;;11.20;99.90;;;;;;5095000;28;20065;-67
2022/05/12 06:20:57;;;;;;;2.65;1.10;;;11.30;99.90;;;;;;5092551;28;20052;-67
2022/05/12 06:23:22;;;;;;;5.07;1.25;;;11.40;99.90;;;;;;5094929;28;20028;-67
2022/05/12 06:25:48;;;;;;;7.60;1.75;;;11.50;99.90;;;;;;5094666;28;20066;-67
2022/05/12 06:28:14;;;;;;;4.93;1.08;;;11.60;99.90;;;;;;5094340;28;20024;-67
2022/05/12 06:30:41;;;;;;;3.95;1.42;;;11.70;99.90;;;;;;5093598;28;20052;-67
2022/05/12 06:33:07;;;;;;;6.85;1.80;;;11.70;99.90;;;;;;5092435;28;20021;-67
2022/05/12 06:35:33;;;;;;;10.88;1.50;;;11.70;99.90;;;;;;5077915;28;20024;-66
2022/05/12 06:37:59;;;;;;;4.78;1.25;;;11.70;99.90;;;;;;5074548;28;20100;-66
2022/05/12 06:40:25;;;;;;;5.75;1.27;;;11.80;99.90;;;;;;5074242;28;20099;-67
2022/05/12 06:42:51;;;;;;;6.60;1.60;;;11.80;99.90;;;;;;5074311;28;20033;-67
2022/05/12 06:45:19;;;;;;;7.50;2.55;;;11.90;99.90;;;;;;5073974;28;20063;-67
2022/05/12 06:47:51;;;;;;;6.47;1.52;;;12.00;99.90;;;;;;5073366;28;20024;-67
2022/05/12 06:50:22;;;;;;;5.53;1.48;;;12.00;99.90;;;;;;5073458;28;20557;-67
2022/05/12 06:52:49;;;;;;;8.65;1.85;;;12.10;99.90;;;;;;5074291;28;20039;-68
2022/05/12 06:55:15;;;;;;;7.28;1.65;;;12.20;99.90;;;;;;5074246;28;20031;-67
2022/05/12 06:57:42;;;;;;;7.65;1.80;;;12.20;99.90;;;;;;5074137;28;20028;-66
2022/05/12 07:00:09;;;;;;;4.57;1.17;;;12.30;99.90;;;;;;5078648;28;20103;-67
2022/05/12 07:02:36;;;;;;;5.78;1.88;;;12.40;99.90;;;;;;5094144;28;20483;-65
2022/05/12 07:05:02;;;;;;;13.77;2.33;;;12.40;99.90;;;;;;5094350;28;20080;-67
2022/05/12 07:07:28;;;;;;;8.77;1.73;;;12.50;99.90;;;;;;5093933;28;20039;-67
2022/05/12 07:09:55;;;;;;;6.28;1.90;;;12.50;99.90;;;;;;5094101;28;20028;-65
2022/05/12 07:12:23;;;;;;;3.55;1.13;;;12.50;99.90;;;;;;5094092;28;20491;-67
2022/05/12 07:14:51;;;;;;;4.32;1.27;;;12.50;99.90;;;;;;5093917;28;20717;-66
2022/05/12 07:17:20;;;;;;;4.68;0.93;;;12.60;99.90;;;;;;5093999;28;20023;-67
2022/05/12 07:19:47;;;;;;;3.70;1.30;;;12.70;99.90;;;;;;5093788;28;20020;-66
2022/05/12 07:27:41;;;;;;;4.75;1.45;;;13.20;99.90;;;;;;5094261;28;20580;-66
2022/05/12 07:30:07;;;;;;;6.40;1.25;;;13.30;99.90;;;;;;5093922;28;20024;-66
2022/05/12 07:32:37;;;;;;;6.03;1.83;;;13.40;99.90;;;;;;5093776;28;20035;-67
2022/05/12 07:35:07;;;;;;;4.38;1.15;;;13.30;99.90;;;;;;5093736;28;20036;-67
2022/05/12 07:37:33;;;;;;;6.40;1.30;;;13.20;99.90;;;;;;5093509;28;20024;-68
2022/05/12 07:39:59;;;;;;;3.85;1.08;;;13.30;99.90;;;;;;5093607;28;20036;-66
2022/05/12 07:42:25;;;;;;;5.82;1.58;;;13.40;99.90;;;;;;5093523;28;20036;-67
2022/05/12 07:44:50;;;;;;;7.30;1.25;;;13.50;99.90;;;;;;5093266;28;20028;-67
2022/05/12 07:47:16;;;;;;;6.60;1.42;;;13.50;99.90;;;;;;5093228;28;20028;-65
2022/05/12 07:49:42;;;;;;;5.80;1.55;;;13.40;99.90;;;;;;5093483;28;20364;-66
2022/05/12 07:52:10;;;;;;;8.35;1.25;;;13.40;99.90;;;;;;5093447;28;20032;-68
2022/05/12 07:54:37;;;;;;;3.53;1.15;;;13.40;99.90;;;;;;5093207;28;20031;-65
2022/05/12 07:57:03;;;;;;;2.88;1.00;;;13.40;99.90;;;;;;5093146;28;20396;-67
2022/05/12 07:59:31;;;;;;;3.35;1.38;;;13.40;99.90;;;;;;5092996;28;20274;-67
2022/05/12 08:01:58;;;;;;;14.80;2.47;;;13.50;99.90;;;;;;5090600;28;20073;-65
2022/05/12 08:04:25;;;;;;;6.47;1.40;;;13.50;99.90;;;;;;5093271;28;20507;-65
2022/05/12 08:06:51;;;;;;;5.70;1.30;;;13.70;99.90;;;;;;5092910;28;20020;-66
2022/05/12 08:09:16;;;;;;;6.57;1.85;;;13.60;99.90;;;;;;5092877;28;20392;-67
2022/05/12 08:11:42;;;;;;;3.13;1.17;;;13.50;99.90;;;;;;5092862;28;20060;-66
2022/05/12 08:14:08;;;;;;;5.65;1.40;;;13.50;99.90;;;;;;5092984;28;20024;-67
2022/05/12 08:16:34;;;;;;;4.20;1.20;;;13.50;99.90;;;;;;5092754;28;20054;-66
2022/05/12 08:18:59;;;;;;;5.38;1.45;;;13.60;99.90;;;;;;5092737;28;20028;-66
2022/05/12 08:21:25;;;;;;;8.80;1.10;;;13.80;99.90;;;;;;5092508;28;20047;-66
2022/05/12 08:23:52;;;;;;;7.07;1.52;;;13.90;99.90;;;;;;5092536;28;20055;-67
2022/05/12 08:26:18;;;;;;;4.82;1.50;;;13.90;99.90;;;;;;5092622;28;20028;-67
2022/05/12 08:28:47;;;;;;;3.70;1.05;;;13.90;99.90;;;;;;5091114;28;20395;-65
2022/05/12 08:31:12;;;;;;;2.72;1.00;;;14.00;99.90;;;;;;5092879;28;20518;-65
2022/05/12 08:33:38;;;;;;;3.00;1.33;;;14.10;99.90;;;;;;5092776;28;20059;-66
2022/05/12 08:36:05;;;;;;;6.07;1.38;;;14.40;99.70;;;;;;5092588;28;20036;-66
2022/05/12 08:38:31;;;;;;;4.53;0.80;;;14.60;99.40;;;;;;5092228;28;20433;-66
2022/05/12 08:41:15;;;;;;;6.65;1.00;;;14.80;99.90;;;;;;5092545;28;20027;-66
2022/05/12 08:43:44;;;;;;;8.02;1.52;;;15.10;99.90;;;;;;5092564;28;20016;-65
2022/05/12 08:46:15;;;;;;;4.32;1.15;;;15.30;99.20;;;;;;5092425;28;20368;-66
2022/05/12 08:48:44;;;;;;;2.97;0.60;;;15.20;98.20;;;;;;5092204;28;20028;-67
2022/05/12 08:51:18;;;;;;;7.25;1.25;;;15.20;99.00;;;;;;5092149;28;20024;-66
2022/05/12 08:53:49;;;;;;;4.13;1.05;;;15.30;99.10;;;;;;5091994;28;20024;-66
2022/05/12 08:56:17;;;;;;;4.68;1.30;;;15.20;98.40;;;;;;5092243;28;20357;-65
2022/05/12 08:58:43;;;;;;;7.28;1.90;;;15.30;99.90;;;;;;5092305;28;20400;-66
2022/05/12 09:01:28;;;;;;;6.28;1.33;;;15.30;99.10;;;;;;5092078;28;20024;-66
2022/05/12 09:04:21;;;;;;;4.78;1.00;;;15.40;99.40;;;;;;5092002;28;20485;-66
2022/05/12 09:06:52;;;;;;;6.95;1.17;;;15.60;98.40;;;;;;5092219;28;20027;-64
2022/05/12 09:09:37;;;;;;;1.02;0.73;;;15.60;97.60;;;;;;5092264;28;20111;-65
2022/05/12 09:12:17;;;;;;;3.90;0.70;;;15.70;98.60;;;;;;5091983;28;20034;-67
2022/05/12 09:15:10;;;;;;;8.90;1.13;;;15.60;97.00;;;;;;5092141;28;20512;-68
2022/05/12 09:18:08;;;;;;;6.35;1.25;;;15.60;98.40;;;;;;5084270;28;20047;-67
2022/05/12 09:20:36;;;;;;;5.72;0.82;;;15.80;98.80;;;;;;5091854;28;20565;-67
2022/05/12 09:23:04;;;;;;;4.20;0.70;;;15.80;97.20;;;;;;5091866;28;20055;-66
2022/05/12 09:25:37;;;;;;;2.83;0.82;;;15.80;96.60;;;;;;5091945;28;20024;-67
2022/05/12 09:28:29;;;;;;;6.07;1.65;;;15.70;97.10;;;;;;5091648;28;20032;-71
2022/05/12 09:31:01;;;;;;;4.13;0.85;;;15.50;97.40;;;;;;5086784;28;20035;-67
2022/05/12 09:33:34;;;;;;;8.32;0.95;;;15.60;97.60;;;;;;5091651;28;20450;-66
2022/05/12 09:36:04;;;;;;;5.20;1.08;;;15.70;97.10;;;;;;5090400;28;20024;-67
2022/05/12 09:38:30;;;;;;;4.10;1.05;;;15.80;98.30;;;;;;5091773;28;20476;-66
2022/05/12 09:40:57;;;;;;;4.22;1.05;;;15.70;97.60;;;;;;5091361;28;20032;-69
2022/05/12 09:43:31;;;;;;;2.87;1.03;;;15.40;97.30;;;;;;5091753;28;20361;-68
2022/05/12 09:46:02;;;;;;;2.72;1.30;;;15.40;97.60;;;;;;5091822;28;20451;-66
2022/05/12 09:48:38;;;;;;;5.47;1.35;;;15.40;97.50;;;;;;5090155;28;20089;-68
2022/05/12 09:51:25;;;;;;;4.65;1.00;;;16.00;97.70;;;;;;5091363;28;20048;-66
2022/05/12 09:53:55;;;;;;;5.07;1.33;;;16.10;97.10;;;;;;5091467;28;20024;-69
2022/05/12 09:56:31;;;;;;;5.80;1.45;;;16.20;95.40;;;;;;5091232;28;20119;-67
2022/05/12 09:59:15;;;;;;;7.85;0.88;;;16.30;96.40;;;;;;5091445;28;20462;-66
2022/05/12 10:02:00;;;;;;;5.65;1.10;;;16.40;96.10;;;;;;5091419;28;20024;-67
2022/05/12 10:10:22;;;;;;;4.95;1.25;;;16.70;93.90;;;;;;5091746;28;20063;-70
2022/05/12 10:13:17;;;;;;;6.28;0.80;;;16.70;92.50;;;;;;5091404;28;20479;-66
2022/05/12 10:15:44;;;;;;;3.80;1.10;;;16.80;94.10;;;;;;5091524;28;20432;-69
2022/05/12 10:18:37;;;;;;;3.30;0.70;;;17.10;93.60;;;;;;5091507;28;20103;-68
2022/05/12 10:21:28;;;;;;;4.57;0.80;;;17.50;93.70;;;;;;5089546;28;20047;-66
2022/05/12 10:23:56;;;;;;;3.47;0.55;;;18.00;93.40;;;;;;5092056;28;20101;-68
2022/05/12 10:27:13;;;;;;;5.50;0.60;;;17.90;92.80;;;;;;5095040;28;20043;-67
2022/05/12 10:29:44;;;;;;;5.93;1.05;;;17.90;90.60;;;;;;5051970;28;20037;-65
2022/05/12 10:32:36;;;;;;;2.13;0.47;;;17.90;90.80;;;;;;5092446;28;20169;-67
2022/05/12 10:35:23;;;;;;;5.93;1.10;;;17.60;92.50;;;;;;5094603;28;20028;-67
2022/05/12 10:38:15;;;;;;;;;;;18.30;92.80;;;;;;5095284;28;20044;-66
2022/05/12 10:40:56;;;;;;;5.22;0.82;;;18.50;92.90;;;;;;5093295;28;19904;-67
2022/05/12 10:43:55;;;;;;;1.90;0.50;;;18.80;91.00;;;;;;5094699;28;20037;-67
2022/05/12 10:46:44;;;;;;;5.95;1.65;;;18.40;91.50;;;;;;5094654;28;20322;-71
2022/05/12 10:49:41;;;;;;;2.85;0.60;;;18.10;90.80;;;;;;5086713;28;20024;-64
2022/05/12 10:52:12;;;;;;;4.75;1.00;;;17.50;90.70;;;;;;5094557;28;20031;-66
2022/05/12 10:55:15;;;;;;;5.20;0.80;;;17.50;90.90;;;;;;5094213;28;20051;-64
2022/05/12 10:58:02;;;;;;;3.65;0.82;;;17.40;90.60;;;;;;5094376;28;20486;-65
2022/05/12 11:00:48;;;;;;;4.07;0.95;;;17.70;92.00;;;;;;5094141;28;20024;-67
2022/05/12 11:03:29;;;;;;;4.43;1.05;;;18.00;90.10;;;;;;5094354;28;20058;-65
2022/05/12 11:05:59;;;;;;;2.10;0.50;;;18.20;90.00;;;;;;5092790;28;20023;-66
2022/05/12 11:08:36;;;;;;;6.82;0.70;;;18.80;88.60;;;;;;5094028;28;20040;-65
2022/05/12 11:11:13;;;;;;;4.40;0.80;;;18.30;90.30;;;;;;5094096;28;20110;-67
2022/05/12 11:13:51;;;;;;;1.73;0.63;;;18.30;88.10;;;;;;5094419;28;20088;-67
2022/05/12 11:16:22;;;;;;;2.83;0.60;;;17.70;87.40;;;;;;5094223;28;20028;-67
2022/05/12 11:18:51;;;;;;;3.90;0.88;;;17.40;88.40;;;;;;5092705;28;20055;-66
2022/05/12 11:21:29;;;;;;;3.50;0.75;;;17.30;88.80;;;;;;5093805;28;20043;-65
2022/05/12 11:24:07;;;;;;;2.78;0.70;;;18.00;90.10;;;;;;5093858;28;20530;-75
2022/05/12 11:26:39;;;;;;;;;;;18.50;86.30;;;;;;5094371;28;20070;-67
2022/05/12 11:32:12;;;;;;;2.92;0.47;;;18.70;86.40;;;;;;5093622;28;20097;-70
2022/05/12 11:34:40;;;;;;;6.22;0.77;;;18.30;85.90;;;;;;5093453;28;20055;-67
2022/05/12 11:37:30;;;;;;;1.63;0.45;;;18.40;84.80;;;;;;5093837;28;20468;-69
2022/05/12 11:40:01;;;;;;;3.88;0.63;;;18.40;84.10;;;;;;5093295;28;20492;-68
2022/05/12 11:44:24;;;;;;;0.47;0.20;;;18.00;85.60;;;;;;5092028;28;20036;-69
2022/05/12 11:45:37;;;;;;;2.65;0.52;;;17.60;84.30;;;;;;5093467;28;20127;-67
2022/05/12 11:48:21;;;;;;;5.45;1.00;;;18.00;85.20;;;;;;5091934;28;20043;-65
2022/05/12 11:51:04;;;;;;;1.48;0.63;;;18.30;82.90;;;;;;5093278;28;20036;-72
2022/05/12 11:53:53;;;;;;;3.92;0.43;;;18.40;83.00;;;;;;5093371;28;20050;-67
2022/05/12 11:56:48;;;;;;;3.55;0.73;;;18.90;84.60;;;;;;5093187;28;20016;-68
2022/05/12 11:59:26;;;;;;;4.07;0.55;;;19.50;82.70;;;;;;5088186;28;20056;-71
2022/05/12 12:02:02;;;;;;;4.55;0.35;;;19.80;80.90;;;;;;5093142;28;20036;-70
2022/05/12 12:04:49;;;;;;;3.08;0.73;;;19.50;78.90;;;;;;5093361;28;20030;-71
2022/05/12 12:07:38;;;;;;;4.07;0.70;;;19.50;81.70;;;;;;5093202;28;20073;-67
2022/05/12 12:10:39;;;;;;;5.63;1.00;;;19.50;81.00;;;;;;5092590;28;20494;-68
2022/05/12 12:13:14;;;;;;;1.55;0.50;;;19.40;78.00;;;;;;5050242;28;20029;-68
2022/05/12 12:15:44;;;;;;;3.00;0.63;;;19.70;76.50;;;;;;5086750;28;20036;-67
2022/05/12 12:18:18;;;;;;;1.48;0.50;;;19.40;77.60;;;;;;5092961;28;20031;-67
2022/05/12 12:20:48;;;;;;;2.78;1.20;;;19.30;79.60;;;;;;5092492;28;20051;-68
2022/05/12 12:23:30;;;;;;;1.20;0.45;;;19.40;77.30;;;;;;5092791;28;20391;-71
2022/05/12 12:26:14;;;;;;;1.77;0.30;;;19.30;75.90;;;;;;5091818;28;20506;-68
2022/05/12 12:28:54;;;;;;;3.63;0.57;;;19.10;77.90;;;;;;5092564;28;20028;-67
2022/05/12 12:31:44;;;;;;;0.75;0.25;;;18.70;80.60;;;;;;5092589;28;20040;-66
2022/05/12 12:34:12;;;;;;;3.65;0.82;;;18.90;80.60;;;;;;5092625;28;20027;-67
2022/05/12 12:37:05;;;;;;;4.18;0.60;;;19.60;80.70;;;;;;5092419;28;20069;-69
2022/05/12 12:39:49;;;;;;;1.92;0.60;;;20.50;77.40;;;;;;5090743;28;20556;-67
2022/05/12 12:42:28;;;;;;;2.00;0.50;;;20.50;76.40;;;;;;5092277;28;20494;-72
2022/05/12 12:45:16;;;;;;;3.22;0.77;;;20.20;75.40;;;;;;5092205;28;20404;-70
2022/05/12 12:48:00;;;;;;;2.67;0.40;;;20.30;76.10;;;;;;5091346;28;20119;-74
2022/05/12 12:50:41;;;;;;;2.03;0.50;;;19.80;76.10;;;;;;5092267;28;20027;-71
2022/05/12 12:56:31;;;;;;;3.20;0.47;;;20.70;73.70;;;;;;5092348;28;20038;-70
2022/05/12 12:59:01;;;;;;;5.80;0.40;;;20.50;74.70;;;;;;5092027;28;20050;-71
2022/05/12 13:01:59;;;;;;;4.82;0.47;;;20.40;77.30;;;;;;5092089;28;20510;-68
2022/05/12 13:04:27;;;;;;;4.80;0.63;;;19.80;78.60;;;;;;5084201;28;20032;-70
2022/05/12 13:06:57;;;;;;;2.95;0.93;;;19.30;78.50;;;;;;5090886;28;20055;-69
2022/05/12 13:09:29;;;;;;;2.80;0.88;;;18.80;80.20;;;;;;5090791;28;20535;-72
2022/05/12 13:12:26;;;;;;;3.47;1.30;;;18.30;81.60;;;;;;5092072;28;20331;-71
2022/05/12 13:14:53;;;;;;;;;;;17.60;84.20;;;;;;5084101;28;20043;-69
2022/05/12 13:17:21;;;;;;;1.05;0.35;;;17.50;82.40;;;;;;5092125;28;19915;-67
2022/05/12 13:19:47;;;;;;;4.18;1.30;;;17.10;82.20;;;;;;5090727;28;20047;-69
2022/05/12 13:22:23;;;;;;;6.82;0.80;;;17.20;86.00;;;;;;5091630;28;20055;-67
2022/05/12 13:24:50;;;;;;;1.95;0.38;;;17.30;86.90;;;;;;5092018;28;20395;-71
2022/05/12 13:27:19;;;;;;;2.60;0.60;;;17.50;86.00;;;;;;5091980;28;20028;-75
2022/05/12 13:29:45;;;;;;;3.70;0.50;;;17.30;87.10;;;;;;5091886;28;20380;-69
2022/05/12 13:32:42;;;;;;;2.95;0.82;;;17.50;87.50;;;;;;5091843;28;20040;-67
2022/05/12 13:35:25;;;;;;;3.45;0.60;;;17.60;86.40;;;;;;5091767;28;20124;-69